sensor_id;sensor_type;location;lat;lon;timestamp;P1;durP1;ratioP1;P2;durP2;ratioP2
6947;SDS011;3513;47.664;9.162;2023-02-24T00:01:58;21.77;;;12.03;;
6947;SDS011;3513;47.664;9.162;2023-02-24T00:04:28;32.23;;;14.50;;
6947;SDS011;3513;47.664;9.162;2023-02-24T00:06:56;25.43;;;13.67;;
6947;SDS011;3513;47.664;9.162;2023-02-24T00:09:23;32.30;;;14.63;;
6947;SDS011;3513;47.664;9.162;2023-02-24T00:11:54;28.70;;;14.80;;
6947;SDS011;3513;47.664;9.162;2023-02-24T00:14:25;37.13;;;14.83;;
6947;SDS011;3513;47.664;9.162;2023-02-24T00:16:53;34.33;;;12.00;;
6947;SDS011;3513;47.664;9.162;2023-02-24T00:19:20;20.93;;;12.20;;
6947;SDS011;3513;47.664;9.162;2023-02-24T00:21:47;22.03;;;9.43;;
6947;SDS011;3513;47.664;9.162;2023-02-24T00:24:15;35.13;;;13.27;;
6947;SDS011;3513;47.664;9.162;2023-02-24T00:26:41;22.73;;;10.10;;
6947;SDS011;3513;47.664;9.162;2023-02-24T00:29:08;29.37;;;12.80;;
6947;SDS011;3513;47.664;9.162;2023-02-24T00:31:35;21.67;;;11.07;;
6947;SDS011;3513;47.664;9.162;2023-02-24T00:34:05;19.37;;;11.50;;
6947;SDS011;3513;47.664;9.162;2023-02-24T00:36:32;23.70;;;11.00;;
6947;SDS011;3513;47.664;9.162;2023-02-24T00:38:59;23.07;;;11.13;;
6947;SDS011;3513;47.664;9.162;2023-02-24T00:41:33;26.80;;;10.00;;
6947;SDS011;3513;47.664;9.162;2023-02-24T00:44:00;22.10;;;10.80;;
6947;SDS011;3513;47.664;9.162;2023-02-24T00:46:33;22.40;;;12.47;;
6947;SDS011;3513;47.664;9.162;2023-02-24T00:48:59;20.50;;;11.20;;
6947;SDS011;3513;47.664;9.162;2023-02-24T00:51:29;22.50;;;10.40;;
6947;SDS011;3513;47.664;9.162;2023-02-24T00:53:59;24.60;;;10.10;;
6947;SDS011;3513;47.664;9.162;2023-02-24T00:56:25;18.27;;;9.13;;
6947;SDS011;3513;47.664;9.162;2023-02-24T00:58:52;18.57;;;9.80;;
6947;SDS011;3513;47.664;9.162;2023-02-24T01:01:20;25.27;;;11.03;;
6947;SDS011;3513;47.664;9.162;2023-02-24T01:03:47;19.60;;;10.23;;
6947;SDS011;3513;47.664;9.162;2023-02-24T01:06:14;19.30;;;9.53;;
6947;SDS011;3513;47.664;9.162;2023-02-24T01:08:44;22.10;;;10.17;;
6947;SDS011;3513;47.664;9.162;2023-02-24T01:11:18;17.63;;;10.40;;
6947;SDS011;3513;47.664;9.162;2023-02-24T01:14:05;17.70;;;10.10;;
6947;SDS011;3513;47.664;9.162;2023-02-24T01:16:35;22.50;;;11.60;;
6947;SDS011;3513;47.664;9.162;2023-02-24T01:19:02;20.23;;;11.43;;
6947;SDS011;3513;47.664;9.162;2023-02-24T01:21:29;23.50;;;10.80;;
6947;SDS011;3513;47.664;9.162;2023-02-24T01:23:55;17.93;;;10.70;;
6947;SDS011;3513;47.664;9.162;2023-02-24T01:26:21;25.77;;;9.93;;
6947;SDS011;3513;47.664;9.162;2023-02-24T01:28:47;20.87;;;10.60;;
6947;SDS011;3513;47.664;9.162;2023-02-24T01:31:14;17.87;;;11.20;;
6947;SDS011;3513;47.664;9.162;2023-02-24T01:33:48;29.47;;;14.10;;
6947;SDS011;3513;47.664;9.162;2023-02-24T01:38:42;23.03;;;11.50;;
6947;SDS011;3513;47.664;9.162;2023-02-24T01:41:12;22.83;;;10.87;;
6947;SDS011;3513;47.664;9.162;2023-02-24T01:46:23;23.00;;;11.37;;
6947;SDS011;3513;47.664;9.162;2023-02-24T01:48:54;28.07;;;11.30;;
6947;SDS011;3513;47.664;9.162;2023-02-24T01:51:23;24.77;;;13.67;;
6947;SDS011;3513;47.664;9.162;2023-02-24T01:53:54;30.93;;;12.43;;
6947;SDS011;3513;47.664;9.162;2023-02-24T01:56:19;21.47;;;11.20;;
6947;SDS011;3513;47.664;9.162;2023-02-24T01:58:45;31.13;;;10.03;;
6947;SDS011;3513;47.664;9.162;2023-02-24T02:01:11;19.37;;;10.30;;
6947;SDS011;3513;47.664;9.162;2023-02-24T02:03:40;21.53;;;10.30;;
6947;SDS011;3513;47.664;9.162;2023-02-24T02:06:09;23.90;;;10.97;;
6947;SDS011;3513;47.664;9.162;2023-02-24T02:08:38;23.33;;;11.23;;
6947;SDS011;3513;47.664;9.162;2023-02-24T02:11:07;20.90;;;10.77;;
6947;SDS011;3513;47.664;9.162;2023-02-24T02:13:34;18.57;;;9.97;;
6947;SDS011;3513;47.664;9.162;2023-02-24T02:16:05;18.93;;;10.03;;
6947;SDS011;3513;47.664;9.162;2023-02-24T02:24:58;19.23;;;11.30;;
6947;SDS011;3513;47.664;9.162;2023-02-24T02:37:07;27.27;;;10.60;;
6947;SDS011;3513;47.664;9.162;2023-02-24T02:42:22;20.33;;;11.30;;
6947;SDS011;3513;47.664;9.162;2023-02-24T02:44:56;28.93;;;10.73;;
6947;SDS011;3513;47.664;9.162;2023-02-24T02:47:47;25.50;;;12.07;;
6947;SDS011;3513;47.664;9.162;2023-02-24T02:52:56;19.60;;;10.13;;
6947;SDS011;3513;47.664;9.162;2023-02-24T02:55:39;18.53;;;10.60;;
6947;SDS011;3513;47.664;9.162;2023-02-24T02:58:12;23.97;;;12.10;;
6947;SDS011;3513;47.664;9.162;2023-02-24T03:00:46;22.90;;;11.83;;
6947;SDS011;3513;47.664;9.162;2023-02-24T03:03:25;20.63;;;10.13;;
6947;SDS011;3513;47.664;9.162;2023-02-24T03:06:02;20.83;;;10.47;;
6947;SDS011;3513;47.664;9.162;2023-02-24T03:08:29;20.53;;;10.13;;
6947;SDS011;3513;47.664;9.162;2023-02-24T03:10:59;14.63;;;8.90;;
6947;SDS011;3513;47.664;9.162;2023-02-24T03:13:26;18.57;;;10.37;;
6947;SDS011;3513;47.664;9.162;2023-02-24T03:15:58;20.37;;;8.67;;
6947;SDS011;3513;47.664;9.162;2023-02-24T03:18:27;17.00;;;7.60;;
6947;SDS011;3513;47.664;9.162;2023-02-24T03:23:43;13.70;;;8.30;;
6947;SDS011;3513;47.664;9.162;2023-02-24T03:26:14;25.93;;;8.90;;
6947;SDS011;3513;47.664;9.162;2023-02-24T03:31:15;54.00;;;10.77;;
6947;SDS011;3513;47.664;9.162;2023-02-24T03:33:49;73.37;;;11.53;;
6947;SDS011;3513;47.664;9.162;2023-02-24T03:36:24;48.63;;;11.50;;
6947;SDS011;3513;47.664;9.162;2023-02-24T03:38:51;53.00;;;16.03;;
6947;SDS011;3513;47.664;9.162;2023-02-24T03:41:17;125.57;;;15.33;;
6947;SDS011;3513;47.664;9.162;2023-02-24T03:43:44;44.67;;;14.30;;
6947;SDS011;3513;47.664;9.162;2023-02-24T03:46:12;91.53;;;15.97;;
6947;SDS011;3513;47.664;9.162;2023-02-24T03:48:41;65.57;;;13.93;;
6947;SDS011;3513;47.664;9.162;2023-02-24T03:51:14;101.93;;;17.93;;
6947;SDS011;3513;47.664;9.162;2023-02-24T03:54:01;120.97;;;17.70;;
6947;SDS011;3513;47.664;9.162;2023-02-24T04:02:05;76.93;;;15.00;;
6947;SDS011;3513;47.664;9.162;2023-02-24T04:04:45;43.23;;;16.00;;
6947;SDS011;3513;47.664;9.162;2023-02-24T04:11:00;39.53;;;15.33;;
6947;SDS011;3513;47.664;9.162;2023-02-24T04:13:49;50.20;;;15.10;;
6947;SDS011;3513;47.664;9.162;2023-02-24T04:16:31;35.97;;;16.40;;
6947;SDS011;3513;47.664;9.162;2023-02-24T04:19:14;42.30;;;15.87;;
6947;SDS011;3513;47.664;9.162;2023-02-24T04:21:44;26.37;;;14.67;;
6947;SDS011;3513;47.664;9.162;2023-02-24T04:24:12;28.03;;;14.10;;
6947;SDS011;3513;47.664;9.162;2023-02-24T04:26:45;29.10;;;13.73;;
6947;SDS011;3513;47.664;9.162;2023-02-24T04:29:16;28.70;;;14.07;;
6947;SDS011;3513;47.664;9.162;2023-02-24T04:31:47;55.80;;;16.70;;
6947;SDS011;3513;47.664;9.162;2023-02-24T04:34:26;83.43;;;17.43;;
6947;SDS011;3513;47.664;9.162;2023-02-24T04:36:56;40.30;;;14.73;;
6947;SDS011;3513;47.664;9.162;2023-02-24T04:39:23;145.83;;;18.20;;
6947;SDS011;3513;47.664;9.162;2023-02-24T04:41:49;141.77;;;17.50;;
6947;SDS011;3513;47.664;9.162;2023-02-24T04:44:16;72.00;;;16.40;;
6947;SDS011;3513;47.664;9.162;2023-02-24T04:46:43;256.07;;;22.13;;
6947;SDS011;3513;47.664;9.162;2023-02-24T04:49:09;87.77;;;18.27;;
6947;SDS011;3513;47.664;9.162;2023-02-24T04:51:36;142.23;;;19.77;;
6947;SDS011;3513;47.664;9.162;2023-02-24T04:54:06;168.77;;;18.40;;
6947;SDS011;3513;47.664;9.162;2023-02-24T04:56:34;282.73;;;24.43;;
6947;SDS011;3513;47.664;9.162;2023-02-24T04:59:00;176.93;;;18.90;;
6947;SDS011;3513;47.664;9.162;2023-02-24T05:01:26;116.43;;;18.07;;
6947;SDS011;3513;47.664;9.162;2023-02-24T05:03:53;90.87;;;15.87;;
6947;SDS011;3513;47.664;9.162;2023-02-24T05:06:19;153.20;;;16.60;;
6947;SDS011;3513;47.664;9.162;2023-02-24T05:08:44;168.23;;;16.33;;
6947;SDS011;3513;47.664;9.162;2023-02-24T05:11:13;77.43;;;14.60;;
6947;SDS011;3513;47.664;9.162;2023-02-24T05:13:40;201.23;;;17.00;;
6947;SDS011;3513;47.664;9.162;2023-02-24T05:16:10;110.07;;;15.40;;
6947;SDS011;3513;47.664;9.162;2023-02-24T05:18:37;65.60;;;14.90;;
6947;SDS011;3513;47.664;9.162;2023-02-24T05:21:06;104.63;;;14.53;;
6947;SDS011;3513;47.664;9.162;2023-02-24T05:23:55;116.80;;;16.80;;
6947;SDS011;3513;47.664;9.162;2023-02-24T05:26:30;135.40;;;17.07;;
6947;SDS011;3513;47.664;9.162;2023-02-24T05:28:58;118.67;;;16.57;;
6947;SDS011;3513;47.664;9.162;2023-02-24T05:31:26;214.47;;;20.03;;
6947;SDS011;3513;47.664;9.162;2023-02-24T05:34:03;200.83;;;18.30;;
6947;SDS011;3513;47.664;9.162;2023-02-24T05:36:36;268.77;;;21.40;;
6947;SDS011;3513;47.664;9.162;2023-02-24T05:39:04;150.73;;;18.77;;
6947;SDS011;3513;47.664;9.162;2023-02-24T05:41:31;235.95;;;27.33;;
6947;SDS011;3513;47.664;9.162;2023-02-24T05:44:01;297.83;;;24.17;;
6947;SDS011;3513;47.664;9.162;2023-02-24T05:46:33;306.93;;;23.70;;
6947;SDS011;3513;47.664;9.162;2023-02-24T05:49:01;373.63;;;25.33;;
6947;SDS011;3513;47.664;9.162;2023-02-24T05:51:44;403.40;;;25.97;;
6947;SDS011;3513;47.664;9.162;2023-02-24T05:54:18;217.63;;;19.10;;
6947;SDS011;3513;47.664;9.162;2023-02-24T05:56:46;201.63;;;18.63;;
6947;SDS011;3513;47.664;9.162;2023-02-24T05:59:13;218.93;;;21.47;;
6947;SDS011;3513;47.664;9.162;2023-02-24T06:01:45;206.87;;;19.13;;
6947;SDS011;3513;47.664;9.162;2023-02-24T06:04:12;211.88;;;27.35;;
6947;SDS011;3513;47.664;9.162;2023-02-24T06:06:46;350.67;;;28.10;;
6947;SDS011;3513;47.664;9.162;2023-02-24T06:09:17;282.73;;;25.57;;
6947;SDS011;3513;47.664;9.162;2023-02-24T06:11:43;255.27;;;21.50;;
6947;SDS011;3513;47.664;9.162;2023-02-24T06:14:09;240.93;;;23.90;;
6947;SDS011;3513;47.664;9.162;2023-02-24T06:16:37;136.87;;;20.90;;
6947;SDS011;3513;47.664;9.162;2023-02-24T06:19:05;173.30;;;18.70;;
6947;SDS011;3513;47.664;9.162;2023-02-24T06:21:35;195.23;;;22.97;;
6947;SDS011;3513;47.664;9.162;2023-02-24T06:24:05;237.17;;;27.37;;
6947;SDS011;3513;47.664;9.162;2023-02-24T06:26:38;159.90;;;26.20;;
6947;SDS011;3513;47.664;9.162;2023-02-24T06:29:09;121.97;;;18.37;;
6947;SDS011;3513;47.664;9.162;2023-02-24T06:31:38;111.03;;;18.30;;
6947;SDS011;3513;47.664;9.162;2023-02-24T06:34:05;119.30;;;17.13;;
6947;SDS011;3513;47.664;9.162;2023-02-24T06:36:31;68.10;;;16.00;;
6947;SDS011;3513;47.664;9.162;2023-02-24T06:38:57;135.50;;;19.00;;
6947;SDS011;3513;47.664;9.162;2023-02-24T06:41:22;125.70;;;19.70;;
6947;SDS011;3513;47.664;9.162;2023-02-24T06:43:48;91.23;;;19.90;;
6947;SDS011;3513;47.664;9.162;2023-02-24T06:46:14;71.03;;;17.17;;
6947;SDS011;3513;47.664;9.162;2023-02-24T06:48:40;39.33;;;15.87;;
6947;SDS011;3513;47.664;9.162;2023-02-24T06:51:08;90.77;;;19.60;;
6947;SDS011;3513;47.664;9.162;2023-02-24T06:53:37;61.43;;;16.27;;
6947;SDS011;3513;47.664;9.162;2023-02-24T06:56:13;59.77;;;16.50;;
6947;SDS011;3513;47.664;9.162;2023-02-24T06:58:44;49.37;;;17.70;;
6947;SDS011;3513;47.664;9.162;2023-02-24T07:01:16;60.80;;;16.53;;
6947;SDS011;3513;47.664;9.162;2023-02-24T07:03:43;44.07;;;18.77;;
6947;SDS011;3513;47.664;9.162;2023-02-24T07:06:41;24.37;;;16.20;;
6947;SDS011;3513;47.664;9.162;2023-02-24T07:09:10;39.33;;;18.00;;
6947;SDS011;3513;47.664;9.162;2023-02-24T07:11:40;37.40;;;16.30;;
6947;SDS011;3513;47.664;9.162;2023-02-24T07:14:10;36.83;;;14.97;;
6947;SDS011;3513;47.664;9.162;2023-02-24T07:16:37;34.17;;;17.20;;
6947;SDS011;3513;47.664;9.162;2023-02-24T07:19:06;56.37;;;29.57;;
6947;SDS011;3513;47.664;9.162;2023-02-24T07:21:35;43.73;;;16.33;;
6947;SDS011;3513;47.664;9.162;2023-02-24T07:24:07;37.00;;;17.00;;
6947;SDS011;3513;47.664;9.162;2023-02-24T07:26:37;35.83;;;16.47;;
6947;SDS011;3513;47.664;9.162;2023-02-24T07:29:05;56.77;;;17.80;;
6947;SDS011;3513;47.664;9.162;2023-02-24T07:31:32;33.80;;;17.17;;
6947;SDS011;3513;47.664;9.162;2023-02-24T07:33:58;28.83;;;17.00;;
6947;SDS011;3513;47.664;9.162;2023-02-24T07:36:26;25.33;;;16.10;;
6947;SDS011;3513;47.664;9.162;2023-02-24T07:39:02;40.20;;;18.47;;
6947;SDS011;3513;47.664;9.162;2023-02-24T07:41:32;105.47;;;28.40;;
6947;SDS011;3513;47.664;9.162;2023-02-24T07:43:58;73.70;;;18.60;;
6947;SDS011;3513;47.664;9.162;2023-02-24T07:46:29;113.07;;;20.20;;
6947;SDS011;3513;47.664;9.162;2023-02-24T07:48:56;46.33;;;15.70;;
6947;SDS011;3513;47.664;9.162;2023-02-24T07:51:24;104.87;;;16.23;;
6947;SDS011;3513;47.664;9.162;2023-02-24T07:53:52;56.97;;;14.77;;
6947;SDS011;3513;47.664;9.162;2023-02-24T07:56:21;28.83;;;15.00;;
6947;SDS011;3513;47.664;9.162;2023-02-24T07:58:51;29.87;;;12.30;;
6947;SDS011;3513;47.664;9.162;2023-02-24T08:01:33;33.63;;;12.67;;
6947;SDS011;3513;47.664;9.162;2023-02-24T08:04:13;41.20;;;14.40;;
6947;SDS011;3513;47.664;9.162;2023-02-24T08:06:41;25.33;;;14.87;;
6947;SDS011;3513;47.664;9.162;2023-02-24T08:09:13;24.10;;;14.07;;
6947;SDS011;3513;47.664;9.162;2023-02-24T08:11:51;25.90;;;17.40;;
6947;SDS011;3513;47.664;9.162;2023-02-24T08:16:46;31.73;;;17.30;;
6947;SDS011;3513;47.664;9.162;2023-02-24T08:19:14;29.00;;;18.70;;
6947;SDS011;3513;47.664;9.162;2023-02-24T08:21:45;34.80;;;19.17;;
6947;SDS011;3513;47.664;9.162;2023-02-24T08:24:16;33.40;;;19.27;;
6947;SDS011;3513;47.664;9.162;2023-02-24T08:26:46;28.77;;;17.97;;
6947;SDS011;3513;47.664;9.162;2023-02-24T08:29:32;22.73;;;14.90;;
6947;SDS011;3513;47.664;9.162;2023-02-24T08:32:22;21.33;;;12.97;;
6947;SDS011;3513;47.664;9.162;2023-02-24T08:34:48;31.37;;;14.33;;
6947;SDS011;3513;47.664;9.162;2023-02-24T08:37:15;31.80;;;16.27;;
6947;SDS011;3513;47.664;9.162;2023-02-24T08:39:41;35.70;;;20.53;;
6947;SDS011;3513;47.664;9.162;2023-02-24T08:42:07;25.93;;;16.70;;
6947;SDS011;3513;47.664;9.162;2023-02-24T08:44:33;35.13;;;17.40;;
6947;SDS011;3513;47.664;9.162;2023-02-24T08:47:01;24.70;;;16.40;;
6947;SDS011;3513;47.664;9.162;2023-02-24T08:49:29;34.60;;;18.60;;
6947;SDS011;3513;47.664;9.162;2023-02-24T08:51:57;30.43;;;16.80;;
6947;SDS011;3513;47.664;9.162;2023-02-24T08:54:27;25.93;;;16.47;;
6947;SDS011;3513;47.664;9.162;2023-02-24T08:56:56;31.60;;;17.10;;
6947;SDS011;3513;47.664;9.162;2023-02-24T08:59:32;29.30;;;17.60;;
6947;SDS011;3513;47.664;9.162;2023-02-24T09:02:12;24.20;;;14.23;;
6947;SDS011;3513;47.664;9.162;2023-02-24T09:04:47;34.23;;;17.37;;
6947;SDS011;3513;47.664;9.162;2023-02-24T09:07:16;31.47;;;17.77;;
6947;SDS011;3513;47.664;9.162;2023-02-24T09:09:44;35.90;;;18.53;;
6947;SDS011;3513;47.664;9.162;2023-02-24T09:12:11;34.90;;;20.60;;
6947;SDS011;3513;47.664;9.162;2023-02-24T09:14:49;44.43;;;22.00;;
6947;SDS011;3513;47.664;9.162;2023-02-24T09:17:19;38.00;;;20.70;;
6947;SDS011;3513;47.664;9.162;2023-02-24T09:20:04;34.03;;;19.20;;
6947;SDS011;3513;47.664;9.162;2023-02-24T09:22:48;49.97;;;21.80;;
6947;SDS011;3513;47.664;9.162;2023-02-24T09:25:33;33.03;;;20.60;;
6947;SDS011;3513;47.664;9.162;2023-02-24T09:28:15;37.47;;;20.03;;
6947;SDS011;3513;47.664;9.162;2023-02-24T09:30:49;32.80;;;18.93;;
6947;SDS011;3513;47.664;9.162;2023-02-24T09:33:32;30.57;;;19.07;;
6947;SDS011;3513;47.664;9.162;2023-02-24T09:36:15;32.20;;;20.40;;
6947;SDS011;3513;47.664;9.162;2023-02-24T09:38:52;34.93;;;19.57;;
6947;SDS011;3513;47.664;9.162;2023-02-24T09:44:35;32.97;;;17.77;;
6947;SDS011;3513;47.664;9.162;2023-02-24T09:47:09;35.83;;;17.97;;
6947;SDS011;3513;47.664;9.162;2023-02-24T09:52:43;35.33;;;18.93;;
6947;SDS011;3513;47.664;9.162;2023-02-24T10:00:52;32.80;;;19.90;;
6947;SDS011;3513;47.664;9.162;2023-02-24T10:03:27;31.40;;;18.90;;
6947;SDS011;3513;47.664;9.162;2023-02-24T10:06:14;31.63;;;18.60;;
6947;SDS011;3513;47.664;9.162;2023-02-24T10:09:24;32.20;;;17.80;;
6947;SDS011;3513;47.664;9.162;2023-02-24T10:11:51;35.47;;;18.43;;
6947;SDS011;3513;47.664;9.162;2023-02-24T10:14:38;33.27;;;16.53;;
6947;SDS011;3513;47.664;9.162;2023-02-24T10:17:13;40.20;;;17.30;;
6947;SDS011;3513;47.664;9.162;2023-02-24T10:19:46;33.90;;;17.77;;
6947;SDS011;3513;47.664;9.162;2023-02-24T10:22:39;29.10;;;17.20;;
6947;SDS011;3513;47.664;9.162;2023-02-24T10:31:20;35.83;;;17.33;;
6947;SDS011;3513;47.664;9.162;2023-02-24T10:34:04;31.20;;;17.70;;
6947;SDS011;3513;47.664;9.162;2023-02-24T10:37:29;34.73;;;20.17;;
6947;SDS011;3513;47.664;9.162;2023-02-24T10:39:49;30.50;;;19.00;;
6947;SDS011;3513;47.664;9.162;2023-02-24T10:42:27;31.40;;;17.57;;
6947;SDS011;3513;47.664;9.162;2023-02-24T10:45:36;25.83;;;18.00;;
6947;SDS011;3513;47.664;9.162;2023-02-24T10:47:56;29.43;;;17.17;;
6947;SDS011;3513;47.664;9.162;2023-02-24T10:50:33;30.00;;;17.40;;
6947;SDS011;3513;47.664;9.162;2023-02-24T10:53:15;31.20;;;18.00;;
6947;SDS011;3513;47.664;9.162;2023-02-24T10:56:05;33.43;;;17.27;;
6947;SDS011;3513;47.664;9.162;2023-02-24T10:59:15;28.27;;;16.77;;
6947;SDS011;3513;47.664;9.162;2023-02-24T11:02:01;27.33;;;15.87;;
6947;SDS011;3513;47.664;9.162;2023-02-24T11:04:50;29.73;;;17.20;;
6947;SDS011;3513;47.664;9.162;2023-02-24T11:07:18;30.23;;;16.70;;
6947;SDS011;3513;47.664;9.162;2023-02-24T11:10:13;34.87;;;17.87;;
6947;SDS011;3513;47.664;9.162;2023-02-24T11:12:50;41.20;;;19.00;;
6947;SDS011;3513;47.664;9.162;2023-02-24T11:18:02;30.60;;;18.77;;
6947;SDS011;3513;47.664;9.162;2023-02-24T11:20:41;38.63;;;19.13;;
6947;SDS011;3513;47.664;9.162;2023-02-24T11:23:21;27.57;;;17.57;;
6947;SDS011;3513;47.664;9.162;2023-02-24T11:25:52;33.60;;;17.43;;
6947;SDS011;3513;47.664;9.162;2023-02-24T11:31:30;37.67;;;17.83;;
6947;SDS011;3513;47.664;9.162;2023-02-24T11:34:16;33.53;;;18.83;;
6947;SDS011;3513;47.664;9.162;2023-02-24T11:42:00;39.47;;;17.83;;
6947;SDS011;3513;47.664;9.162;2023-02-24T11:44:44;33.10;;;18.70;;
6947;SDS011;3513;47.664;9.162;2023-02-24T11:47:16;36.23;;;16.87;;
6947;SDS011;3513;47.664;9.162;2023-02-24T11:50:02;35.80;;;17.70;;
6947;SDS011;3513;47.664;9.162;2023-02-24T11:52:48;29.60;;;17.53;;
6947;SDS011;3513;47.664;9.162;2023-02-24T11:55:22;36.43;;;17.60;;
6947;SDS011;3513;47.664;9.162;2023-02-24T11:58:01;30.63;;;17.47;;
6947;SDS011;3513;47.664;9.162;2023-02-24T12:00:34;36.67;;;17.70;;
6947;SDS011;3513;47.664;9.162;2023-02-24T12:03:16;34.23;;;18.00;;
6947;SDS011;3513;47.664;9.162;2023-02-24T12:05:52;31.63;;;18.17;;
6947;SDS011;3513;47.664;9.162;2023-02-24T12:08:27;38.70;;;17.80;;
6947;SDS011;3513;47.664;9.162;2023-02-24T12:11:18;34.93;;;17.03;;
6947;SDS011;3513;47.664;9.162;2023-02-24T12:13:53;32.53;;;17.10;;
6947;SDS011;3513;47.664;9.162;2023-02-24T12:16:42;37.43;;;17.23;;
6947;SDS011;3513;47.664;9.162;2023-02-24T12:19:16;34.63;;;17.40;;
6947;SDS011;3513;47.664;9.162;2023-02-24T12:22:32;35.17;;;19.53;;
6947;SDS011;3513;47.664;9.162;2023-02-24T12:24:38;46.57;;;20.20;;
6947;SDS011;3513;47.664;9.162;2023-02-24T12:35:46;37.23;;;17.63;;
6947;SDS011;3513;47.664;9.162;2023-02-24T12:38:34;35.30;;;18.57;;
6947;SDS011;3513;47.664;9.162;2023-02-24T12:41:29;35.00;;;17.67;;
6947;SDS011;3513;47.664;9.162;2023-02-24T12:46:40;35.47;;;18.00;;
6947;SDS011;3513;47.664;9.162;2023-02-24T12:59:46;32.20;;;16.20;;
6947;SDS011;3513;47.664;9.162;2023-02-24T13:02:26;34.43;;;16.10;;
6947;SDS011;3513;47.664;9.162;2023-02-24T13:05:22;43.80;;;17.90;;
6947;SDS011;3513;47.664;9.162;2023-02-24T13:13:07;35.93;;;18.40;;
6947;SDS011;3513;47.664;9.162;2023-02-24T13:15:47;35.40;;;18.07;;
6947;SDS011;3513;47.664;9.162;2023-02-24T13:18:22;42.30;;;17.23;;
6947;SDS011;3513;47.664;9.162;2023-02-24T13:20:49;36.03;;;17.93;;
6947;SDS011;3513;47.664;9.162;2023-02-24T13:23:26;32.60;;;17.97;;
6947;SDS011;3513;47.664;9.162;2023-02-24T13:25:53;31.00;;;14.50;;
6947;SDS011;3513;47.664;9.162;2023-02-24T13:28:23;33.73;;;16.17;;
6947;SDS011;3513;47.664;9.162;2023-02-24T13:31:10;39.97;;;17.50;;
6947;SDS011;3513;47.664;9.162;2023-02-24T13:33:38;38.50;;;16.43;;
6947;SDS011;3513;47.664;9.162;2023-02-24T13:36:13;27.77;;;14.77;;
6947;SDS011;3513;47.664;9.162;2023-02-24T13:38:48;32.00;;;17.20;;
6947;SDS011;3513;47.664;9.162;2023-02-24T13:41:33;35.80;;;18.53;;
6947;SDS011;3513;47.664;9.162;2023-02-24T13:44:02;33.93;;;15.77;;
6947;SDS011;3513;47.664;9.162;2023-02-24T13:46:48;29.43;;;15.90;;
6947;SDS011;3513;47.664;9.162;2023-02-24T13:52:25;24.80;;;15.30;;
6947;SDS011;3513;47.664;9.162;2023-02-24T14:00:28;32.43;;;16.07;;
6947;SDS011;3513;47.664;9.162;2023-02-24T14:03:11;25.47;;;16.33;;
6947;SDS011;3513;47.664;9.162;2023-02-24T14:05:46;31.80;;;15.97;;
6947;SDS011;3513;47.664;9.162;2023-02-24T14:08:18;32.57;;;15.20;;
6947;SDS011;3513;47.664;9.162;2023-02-24T14:10:54;24.50;;;15.27;;
6947;SDS011;3513;47.664;9.162;2023-02-24T14:13:25;35.50;;;16.57;;
6947;SDS011;3513;47.664;9.162;2023-02-24T14:15:57;29.20;;;16.20;;
6947;SDS011;3513;47.664;9.162;2023-02-24T14:18:26;27.17;;;16.60;;
6947;SDS011;3513;47.664;9.162;2023-02-24T14:20:54;27.73;;;16.00;;
6947;SDS011;3513;47.664;9.162;2023-02-24T14:25:47;36.53;;;19.13;;
6947;SDS011;3513;47.664;9.162;2023-02-24T14:28:33;29.47;;;15.67;;
6947;SDS011;3513;47.664;9.162;2023-02-24T14:31:08;41.37;;;19.07;;
6947;SDS011;3513;47.664;9.162;2023-02-24T14:33:37;31.73;;;17.60;;
6947;SDS011;3513;47.664;9.162;2023-02-24T14:36:05;35.37;;;17.03;;
6947;SDS011;3513;47.664;9.162;2023-02-24T14:38:39;39.20;;;17.97;;
6947;SDS011;3513;47.664;9.162;2023-02-24T14:41:07;38.90;;;17.93;;
6947;SDS011;3513;47.664;9.162;2023-02-24T14:43:46;41.97;;;17.03;;
6947;SDS011;3513;47.664;9.162;2023-02-24T14:46:12;30.50;;;15.90;;
6947;SDS011;3513;47.664;9.162;2023-02-24T14:48:38;31.13;;;17.70;;
6947;SDS011;3513;47.664;9.162;2023-02-24T14:51:06;32.83;;;17.63;;
6947;SDS011;3513;47.664;9.162;2023-02-24T14:53:40;33.60;;;16.37;;
6947;SDS011;3513;47.664;9.162;2023-02-24T14:56:15;30.30;;;16.03;;
6947;SDS011;3513;47.664;9.162;2023-02-24T15:03:50;32.87;;;17.83;;
6947;SDS011;3513;47.664;9.162;2023-02-24T15:06:23;32.20;;;17.80;;
6947;SDS011;3513;47.664;9.162;2023-02-24T15:08:56;37.10;;;16.17;;
6947;SDS011;3513;47.664;9.162;2023-02-24T15:11:28;32.97;;;16.87;;
6947;SDS011;3513;47.664;9.162;2023-02-24T15:16:22;35.93;;;19.20;;
6947;SDS011;3513;47.664;9.162;2023-02-24T15:18:50;43.70;;;19.73;;
6947;SDS011;3513;47.664;9.162;2023-02-24T15:21:18;33.83;;;18.73;;
6947;SDS011;3513;47.664;9.162;2023-02-24T15:23:46;27.03;;;15.20;;
6947;SDS011;3513;47.664;9.162;2023-02-24T15:26:23;33.97;;;17.90;;
6947;SDS011;3513;47.664;9.162;2023-02-24T15:28:55;33.90;;;16.90;;
6947;SDS011;3513;47.664;9.162;2023-02-24T15:31:26;27.63;;;16.57;;
6947;SDS011;3513;47.664;9.162;2023-02-24T15:33:59;36.43;;;18.63;;
6947;SDS011;3513;47.664;9.162;2023-02-24T15:36:29;29.70;;;17.03;;
6947;SDS011;3513;47.664;9.162;2023-02-24T15:38:59;32.57;;;17.07;;
6947;SDS011;3513;47.664;9.162;2023-02-24T15:41:40;45.13;;;18.20;;
6947;SDS011;3513;47.664;9.162;2023-02-24T15:44:25;45.17;;;18.83;;
6947;SDS011;3513;47.664;9.162;2023-02-24T15:47:21;32.70;;;19.10;;
6947;SDS011;3513;47.664;9.162;2023-02-24T15:49:48;33.77;;;18.70;;
6947;SDS011;3513;47.664;9.162;2023-02-24T15:52:14;35.37;;;19.33;;
6947;SDS011;3513;47.664;9.162;2023-02-24T15:54:46;28.70;;;16.87;;
6947;SDS011;3513;47.664;9.162;2023-02-24T15:57:13;47.13;;;20.37;;
6947;SDS011;3513;47.664;9.162;2023-02-24T15:59:40;31.83;;;18.73;;
6947;SDS011;3513;47.664;9.162;2023-02-24T16:02:12;43.33;;;19.47;;
6947;SDS011;3513;47.664;9.162;2023-02-24T16:04:42;33.33;;;19.50;;
6947;SDS011;3513;47.664;9.162;2023-02-24T16:07:09;35.23;;;19.87;;
6947;SDS011;3513;47.664;9.162;2023-02-24T16:09:40;42.10;;;18.50;;
6947;SDS011;3513;47.664;9.162;2023-02-24T16:12:29;40.80;;;20.93;;
6947;SDS011;3513;47.664;9.162;2023-02-24T16:14:56;32.93;;;20.03;;
6947;SDS011;3513;47.664;9.162;2023-02-24T16:19:59;41.07;;;19.50;;
6947;SDS011;3513;47.664;9.162;2023-02-24T16:22:26;45.23;;;20.60;;
6947;SDS011;3513;47.664;9.162;2023-02-24T16:24:52;41.97;;;19.63;;
6947;SDS011;3513;47.664;9.162;2023-02-24T16:27:19;42.63;;;20.60;;
6947;SDS011;3513;47.664;9.162;2023-02-24T16:29:46;38.30;;;20.63;;
6947;SDS011;3513;47.664;9.162;2023-02-24T16:32:13;40.87;;;19.40;;
6947;SDS011;3513;47.664;9.162;2023-02-24T16:34:39;46.17;;;22.27;;
6947;SDS011;3513;47.664;9.162;2023-02-24T16:37:15;37.60;;;20.10;;
6947;SDS011;3513;47.664;9.162;2023-02-24T16:39:43;32.50;;;21.57;;
6947;SDS011;3513;47.664;9.162;2023-02-24T16:42:09;36.00;;;20.43;;
6947;SDS011;3513;47.664;9.162;2023-02-24T16:44:35;36.63;;;20.20;;
6947;SDS011;3513;47.664;9.162;2023-02-24T16:47:02;44.37;;;22.27;;
6947;SDS011;3513;47.664;9.162;2023-02-24T16:49:29;42.67;;;23.87;;
6947;SDS011;3513;47.664;9.162;2023-02-24T16:51:56;45.50;;;23.60;;
6947;SDS011;3513;47.664;9.162;2023-02-24T16:54:21;40.23;;;24.30;;
6947;SDS011;3513;47.664;9.162;2023-02-24T16:56:52;40.60;;;24.23;;
6947;SDS011;3513;47.664;9.162;2023-02-24T16:59:18;73.60;;;37.80;;
6947;SDS011;3513;47.664;9.162;2023-02-24T17:01:44;61.67;;;32.67;;
6947;SDS011;3513;47.664;9.162;2023-02-24T17:04:10;55.77;;;29.77;;
6947;SDS011;3513;47.664;9.162;2023-02-24T17:06:38;54.83;;;27.13;;
6947;SDS011;3513;47.664;9.162;2023-02-24T17:09:04;47.50;;;18.17;;
6947;SDS011;3513;47.664;9.162;2023-02-24T17:11:29;19.77;;;8.57;;
6947;SDS011;3513;47.664;9.162;2023-02-24T17:13:56;33.10;;;8.60;;
6947;SDS011;3513;47.664;9.162;2023-02-24T17:16:22;33.73;;;7.70;;
6947;SDS011;3513;47.664;9.162;2023-02-24T17:18:48;27.10;;;8.23;;